Terminal Aerodrome Forecast
Issued by NWS

Home | Current Version | Previous Version | Text Only | Print | Product List | Glossary On
Versions: 1 2 3 4 5 6 7 8 9 10 11 12 13 14 15 16 17 18 19 20 21 22 23 24 25 26 27 28 29 30 31 32 33 34 35 36
000
FTUS44 KHGX 302324
TAFUTS
TAF
KUTS 302324Z 3100/3124 VRB05KT P6SM VCSH FEW070 SCT090
     FM310300 00000KT P6SM FEW070
     FM311100 VRB03KT P6SM SCT070
     FM311300 34004KT P6SM VCSH SCT070
     FM311900 05005KT P6SM FEW070 SCT250=

USA.gov is the U.S. government's official web portal to all federal, state and local government web resources and services.